Time;durP1;ratioP1;P1;durP2;ratioP2;P2;SDS_P1;SDS_P2;PMS_P1;PMS_P2;Temp;Humidity;BMP_temperature;BMP_pressure;BME280_temperature;BME280_humidity;BME280_pressure;Samples;Min_cycle;Max_cycle;Signal;HPM_P1;HPM_P2
2021/06/30 00:01:00;;;;;;;1999.90;999.90;;;15.50;99.90;;;;;;5015972;28;20172;-70
2021/06/30 00:03:26;;;;;;;1999.90;999.90;;;15.50;99.90;;;;;;5015899;28;20191;-69
2021/06/30 00:05:52;;;;;;;1999.90;999.90;;;15.50;99.90;;;;;;5015518;28;20176;-69
2021/06/30 00:08:17;;;;;;;1999.90;999.90;;;15.50;99.90;;;;;;5015820;28;20177;-69
2021/06/30 00:10:43;;;;;;;1999.90;999.90;;;15.50;99.90;;;;;;5015710;28;20403;-70
2021/06/30 00:13:10;;;;;;;1999.90;999.90;;;15.50;99.90;;;;;;5015534;28;20547;-70
2021/06/30 00:15:36;;;;;;;1999.90;999.90;;;15.50;99.90;;;;;;5015282;28;20449;-69
2021/06/30 00:18:03;;;;;;;1999.90;999.90;;;15.60;99.90;;;;;;5015626;28;20410;-69
2021/06/30 00:20:29;;;;;;;1999.90;999.90;;;15.60;99.90;;;;;;5015475;28;20881;-69
2021/06/30 00:22:54;;;;;;;1999.90;999.90;;;15.60;99.90;;;;;;5015357;28;20448;-69
2021/06/30 00:25:21;;;;;;;1999.90;999.90;;;15.60;99.90;;;;;;5015322;28;20180;-70
2021/06/30 00:27:48;;;;;;;1999.90;999.90;;;15.60;99.90;;;;;;5015352;28;20215;-69
2021/06/30 00:30:15;;;;;;;1999.90;999.90;;;15.60;99.90;;;;;;5015359;28;20406;-69
2021/06/30 00:32:40;;;;;;;1999.90;999.90;;;15.60;99.90;;;;;;5015205;28;20428;-69
2021/06/30 00:35:06;;;;;;;1999.90;999.90;;;15.60;99.90;;;;;;5014988;28;20408;-69
2021/06/30 00:37:32;;;;;;;1999.90;999.90;;;15.60;99.90;;;;;;5015170;28;20222;-69
2021/06/30 00:39:58;;;;;;;1999.90;999.90;;;15.60;99.90;;;;;;5015229;28;20893;-69
2021/06/30 00:42:26;;;;;;;1999.90;999.90;;;15.60;99.90;;;;;;5014984;28;20168;-69
2021/06/30 00:44:51;;;;;;;1999.90;999.90;;;15.50;99.90;;;;;;5014806;28;20170;-69
2021/06/30 00:47:19;;;;;;;1999.90;999.90;;;15.50;99.90;;;;;;5015032;28;20412;-69
2021/06/30 00:49:44;;;;;;;1999.90;999.90;;;15.60;99.90;;;;;;5014948;28;20516;-69
2021/06/30 00:52:10;;;;;;;1999.90;999.90;;;15.60;99.90;;;;;;5014918;28;20491;-69
2021/06/30 00:54:35;;;;;;;1999.90;999.90;;;15.50;99.90;;;;;;5014526;28;20245;-69
2021/06/30 00:57:01;;;;;;;1999.90;999.90;;;15.50;99.90;;;;;;5014781;28;20736;-69
2021/06/30 00:59:27;;;;;;;1999.90;999.90;;;15.50;99.90;;;;;;5014782;28;20169;-69
2021/06/30 01:01:53;;;;;;;1999.90;999.90;;;15.50;99.90;;;;;;5014687;28;20914;-69
2021/06/30 01:04:19;;;;;;;1999.90;999.90;;;15.50;99.90;;;;;;5014202;28;20190;-69
2021/06/30 01:06:44;;;;;;;1999.90;999.90;;;15.50;99.90;;;;;;5014677;28;20415;-69
2021/06/30 01:09:11;;;;;;;1999.90;999.90;;;15.50;99.90;;;;;;5014699;28;20167;-69
2021/06/30 01:11:36;;;;;;;1999.90;999.90;;;15.50;99.90;;;;;;5014561;28;20190;-69
2021/06/30 01:14:03;;;;;;;1999.90;999.90;;;15.40;99.90;;;;;;5014264;28;20434;-69
2021/06/30 01:16:29;;;;;;;1999.90;999.90;;;15.40;99.90;;;;;;5014444;28;20241;-69
2021/06/30 01:18:54;;;;;;;1999.90;999.90;;;15.40;99.90;;;;;;5014543;28;20450;-69
2021/06/30 01:21:20;;;;;;;1999.90;999.90;;;15.40;99.90;;;;;;5014450;28;20459;-69
2021/06/30 01:23:46;;;;;;;1999.90;999.90;;;15.40;99.90;;;;;;5013958;28;20227;-69
2021/06/30 01:26:13;;;;;;;1999.90;999.90;;;15.30;99.90;;;;;;5014252;28;20173;-68
2021/06/30 01:28:39;;;;;;;1999.90;999.90;;;15.30;99.90;;;;;;5014289;28;20161;-68
2021/06/30 01:31:06;;;;;;;1999.90;999.90;;;15.40;99.90;;;;;;5014271;28;20452;-68
2021/06/30 01:33:32;;;;;;;1999.90;999.90;;;15.40;99.90;;;;;;5014043;28;20529;-68
2021/06/30 01:35:58;;;;;;;1999.90;999.90;;;15.40;99.90;;;;;;5013817;28;20449;-68
2021/06/30 01:38:26;;;;;;;1999.90;999.90;;;15.40;99.90;;;;;;5014059;28;20415;-68
2021/06/30 01:40:54;;;;;;;1999.90;999.90;;;15.50;99.90;;;;;;5014080;28;20165;-68
2021/06/30 01:43:20;;;;;;;1999.90;999.90;;;15.50;99.90;;;;;;5013854;28;20807;-68
2021/06/30 01:45:49;;;;;;;1999.90;999.90;;;15.50;99.90;;;;;;5013711;28;20411;-68
2021/06/30 01:48:14;;;;;;;1999.90;999.90;;;15.50;99.90;;;;;;5013856;28;20404;-68
2021/06/30 01:50:40;;;;;;;1999.90;999.90;;;15.50;99.90;;;;;;5013880;28;20431;-68
2021/06/30 01:53:06;;;;;;;1999.90;999.90;;;15.60;99.90;;;;;;5013683;28;20239;-68
2021/06/30 01:55:32;;;;;;;1999.90;999.90;;;15.60;99.90;;;;;;5013460;28;20176;-68
2021/06/30 01:57:58;;;;;;;1999.90;999.90;;;15.60;99.90;;;;;;5013665;28;20411;-68
2021/06/30 02:00:24;;;;;;;1999.90;999.90;;;15.60;99.90;;;;;;5013672;28;20400;-68
2021/06/30 02:02:50;;;;;;;1999.90;999.90;;;15.60;99.90;;;;;;5013561;28;20195;-68
2021/06/30 02:05:22;;;;;;;1999.90;999.90;;;15.50;99.90;;;;;;5013394;28;20182;-68
2021/06/30 02:07:54;;;;;;;1999.90;999.90;;;15.50;99.90;;;;;;5013421;28;20410;-68
2021/06/30 02:10:21;;;;;;;1999.90;999.90;;;15.50;99.90;;;;;;5013602;28;20408;-68
2021/06/30 02:12:47;;;;;;;1999.90;999.90;;;15.50;99.90;;;;;;5013394;28;20491;-68
2021/06/30 02:15:28;;;;;;;1999.90;999.90;;;15.50;99.90;;;;;;5012583;28;20482;-68
2021/06/30 02:17:56;;;;;;;1999.90;999.90;;;15.50;99.90;;;;;;5013445;28;20432;-68
2021/06/30 02:20:23;;;;;;;1999.90;999.90;;;15.50;99.90;;;;;;5013369;28;20405;-69
2021/06/30 02:22:50;;;;;;;1999.90;999.90;;;15.50;99.90;;;;;;5013069;28;20805;-68
2021/06/30 02:25:22;;;;;;;1999.90;999.90;;;15.40;99.90;;;;;;5012947;28;20404;-68
2021/06/30 02:27:48;;;;;;;1999.90;999.90;;;15.40;99.90;;;;;;5011956;28;20416;-68
2021/06/30 02:30:40;;;;;;;1999.90;999.90;;;15.40;99.90;;;;;;5013153;28;20446;-68
2021/06/30 02:33:06;;;;;;;1999.90;999.90;;;15.40;99.90;;;;;;5010209;28;20439;-68
2021/06/30 02:35:32;;;;;;;1999.90;999.90;;;15.40;99.90;;;;;;5012977;28;20411;-68
2021/06/30 02:37:58;;;;;;;1999.90;999.90;;;15.40;99.90;;;;;;5013002;28;20158;-68
2021/06/30 02:40:26;;;;;;;1999.90;999.90;;;15.40;99.90;;;;;;5012979;28;20459;-68
2021/06/30 02:42:52;;;;;;;1999.90;999.90;;;15.30;99.90;;;;;;5012839;28;20433;-68
2021/06/30 02:45:19;;;;;;;1999.90;999.90;;;15.30;99.90;;;;;;5012574;28;20548;-68
2021/06/30 02:47:47;;;;;;;1999.90;999.90;;;15.30;99.90;;;;;;5012822;28;20495;-68
2021/06/30 02:50:16;;;;;;;1999.90;999.90;;;15.40;99.90;;;;;;5012741;28;20448;-68
2021/06/30 02:52:47;;;;;;;1999.90;999.90;;;15.40;99.90;;;;;;5012691;28;20806;-68
2021/06/30 02:55:13;;;;;;;1999.90;999.90;;;15.30;99.90;;;;;;5012498;28;20417;-68
2021/06/30 02:57:39;;;;;;;1999.90;999.90;;;15.30;99.90;;;;;;5012696;28;20482;-68
2021/06/30 03:00:14;;;;;;;1999.90;999.90;;;15.20;99.90;;;;;;5012695;28;20405;-68
2021/06/30 03:02:40;;;;;;;1999.90;999.90;;;15.20;99.90;;;;;;5012491;28;20691;-67
2021/06/30 03:05:06;;;;;;;1999.90;999.90;;;15.20;99.90;;;;;;5012364;28;20493;-68
2021/06/30 03:07:32;;;;;;;1999.90;999.90;;;15.30;99.90;;;;;;5012430;28;20169;-68
2021/06/30 03:09:58;;;;;;;1999.90;999.90;;;15.30;99.90;;;;;;5012516;28;20411;-68
2021/06/30 03:12:23;;;;;;;1999.90;999.90;;;15.30;99.90;;;;;;5012402;28;20177;-68
2021/06/30 03:14:49;;;;;;;1999.90;999.90;;;15.30;99.90;;;;;;5012093;28;20407;-68
2021/06/30 03:17:15;;;;;;;1999.90;999.90;;;15.30;99.90;;;;;;5012331;28;20224;-68
2021/06/30 03:19:41;;;;;;;1999.90;999.90;;;15.30;99.90;;;;;;5012438;28;20258;-68
2021/06/30 03:22:07;;;;;;;1999.90;999.90;;;15.40;99.90;;;;;;5012308;28;20177;-68
2021/06/30 03:24:33;;;;;;;1999.90;999.90;;;15.40;99.90;;;;;;5062638;23;20540;-75
2021/06/30 03:26:58;;;;;;;1999.90;999.90;;;15.40;99.90;;;;;;5031239;28;20409;-75
2021/06/30 03:29:24;;;;;;;1999.90;999.90;;;15.40;99.90;;;;;;5032070;28;20428;-75
2021/06/30 03:31:49;;;;;;;1999.90;999.90;;;15.40;99.90;;;;;;5031790;28;20221;-75
2021/06/30 03:34:15;;;;;;;1999.90;999.90;;;15.40;99.90;;;;;;5031631;28;20188;-74
2021/06/30 03:36:41;;;;;;;1999.90;999.90;;;15.40;99.90;;;;;;5031786;28;20711;-75
2021/06/30 03:39:06;;;;;;;1999.90;999.90;;;15.50;99.90;;;;;;5031847;28;20581;-75
2021/06/30 03:41:32;;;;;;;1999.90;999.90;;;15.50;99.90;;;;;;5031828;28;20175;-75
2021/06/30 03:43:58;;;;;;;1999.90;999.90;;;15.60;99.90;;;;;;5031445;28;20188;-76
2021/06/30 03:46:23;;;;;;;1999.90;999.90;;;15.60;99.90;;;;;;5031766;28;20575;-75
2021/06/30 03:48:49;;;;;;;1999.90;999.90;;;15.70;99.90;;;;;;5031809;28;20176;-75
2021/06/30 03:51:14;;;;;;;1999.90;999.90;;;15.70;99.90;;;;;;5031717;28;20200;-75
2021/06/30 03:53:40;;;;;;;1999.90;999.90;;;15.70;99.90;;;;;;5031630;28;20192;-75
2021/06/30 03:56:06;;;;;;;1999.90;999.90;;;15.80;99.90;;;;;;5031491;28;20192;-74
2021/06/30 03:58:32;;;;;;;1999.90;999.90;;;15.80;99.90;;;;;;5031782;28;20712;-75
2021/06/30 04:00:58;;;;;;;1999.90;999.90;;;15.80;99.90;;;;;;5031711;28;20632;-74
2021/06/30 04:03:24;;;;;;;1999.90;999.90;;;15.80;99.90;;;;;;5031622;28;20886;-75
2021/06/30 04:05:50;;;;;;;1999.90;999.90;;;15.80;99.90;;;;;;5031372;28;20425;-74
2021/06/30 04:08:15;;;;;;;1999.90;999.90;;;15.90;99.90;;;;;;5031578;28;20495;-75
2021/06/30 04:10:41;;;;;;;1999.90;999.90;;;16.00;99.90;;;;;;5031558;28;20260;-75
2021/06/30 04:13:08;;;;;;;1999.90;999.90;;;15.90;99.90;;;;;;5031636;28;20173;-75
2021/06/30 04:15:34;;;;;;;1999.90;999.90;;;15.90;99.90;;;;;;5031085;28;20449;-75
2021/06/30 04:18:05;;;;;;;1999.90;999.90;;;15.90;99.90;;;;;;5031533;28;20404;-74
2021/06/30 04:20:31;;;;;;;1999.90;999.90;;;15.90;99.90;;;;;;5031562;28;20879;-75
2021/06/30 04:22:57;;;;;;;1999.90;999.90;;;16.00;99.90;;;;;;5031392;28;20411;-75
2021/06/30 04:25:23;;;;;;;1999.90;999.90;;;16.00;99.90;;;;;;5031010;28;20242;-75
2021/06/30 04:27:48;;;;;;;1999.90;999.90;;;16.10;99.90;;;;;;5031420;28;20171;-75
2021/06/30 04:30:14;;;;;;;1999.90;999.90;;;16.10;99.90;;;;;;5031397;28;20160;-75
2021/06/30 04:32:40;;;;;;;1999.90;999.90;;;16.10;99.90;;;;;;5031382;28;20170;-75
2021/06/30 04:35:07;;;;;;;1999.90;999.90;;;16.10;99.90;;;;;;5030979;28;20199;-75
2021/06/30 04:37:33;;;;;;;1999.90;999.90;;;16.10;99.90;;;;;;5032082;28;20251;-75
2021/06/30 04:40:00;;;;;;;1999.90;999.90;;;16.10;99.90;;;;;;5035018;28;20912;-76
2021/06/30 04:42:26;;;;;;;1999.90;999.90;;;16.10;99.90;;;;;;5035022;28;20414;-75
2021/06/30 04:44:51;;;;;;;1999.90;999.90;;;16.10;99.90;;;;;;5034444;28;20415;-76
2021/06/30 04:47:17;;;;;;;1999.90;999.90;;;16.10;99.90;;;;;;5034946;28;20669;-75
2021/06/30 04:49:43;;;;;;;1999.90;999.90;;;16.20;99.90;;;;;;5034797;28;20176;-75
2021/06/30 04:52:08;;;;;;;1999.90;999.90;;;16.20;99.90;;;;;;5034694;28;20549;-75
2021/06/30 04:54:34;;;;;;;1999.90;999.90;;;16.30;99.90;;;;;;5034333;28;20184;-75
2021/06/30 04:56:59;;;;;;;1999.90;999.90;;;16.40;99.90;;;;;;5034622;28;20731;-76
2021/06/30 04:59:25;;;;;;;1999.90;999.90;;;16.40;99.90;;;;;;5034661;28;20210;-75
2021/06/30 05:01:51;;;;;;;1999.90;999.90;;;16.40;99.90;;;;;;5034604;28;20169;-75
2021/06/30 05:04:18;;;;;;;1999.90;999.90;;;16.40;99.90;;;;;;5034223;28;20204;-75
2021/06/30 05:06:44;;;;;;;1999.90;999.90;;;16.50;99.90;;;;;;5034496;28;20255;-73
2021/06/30 05:09:09;;;;;;;1999.90;999.90;;;16.60;99.90;;;;;;5034388;28;20503;-73
2021/06/30 05:11:35;;;;;;;1999.90;999.90;;;16.70;99.90;;;;;;5034619;28;20183;-73
2021/06/30 05:14:00;;;;;;;1999.90;999.90;;;16.70;99.90;;;;;;5034059;28;20279;-73
2021/06/30 05:16:26;;;;;;;1999.90;999.90;;;16.70;99.90;;;;;;5034243;28;20644;-73
2021/06/30 05:18:52;;;;;;;1999.90;999.90;;;16.70;99.90;;;;;;5034277;28;20217;-73
2021/06/30 05:21:18;;;;;;;1999.90;999.90;;;16.70;99.90;;;;;;5034216;28;20174;-73
2021/06/30 05:23:44;;;;;;;1999.90;999.90;;;16.80;99.90;;;;;;5033796;28;20203;-73
2021/06/30 05:26:10;;;;;;;1999.90;999.90;;;16.80;99.90;;;;;;5034120;28;20400;-73
2021/06/30 05:28:35;;;;;;;1999.90;999.90;;;16.70;99.90;;;;;;5034101;28;20178;-73
2021/06/30 05:31:01;;;;;;;1999.90;999.90;;;16.60;99.90;;;;;;5033976;28;20183;-73
2021/06/30 05:33:28;;;;;;;1999.90;999.90;;;16.70;99.90;;;;;;5033977;28;20206;-73
2021/06/30 05:35:53;;;;;;;1999.90;999.90;;;16.60;99.90;;;;;;5033582;28;20283;-73
2021/06/30 05:38:19;;;;;;;1999.90;999.90;;;16.70;99.90;;;;;;5034119;28;20502;-72
2021/06/30 05:40:45;;;;;;;1999.90;999.90;;;16.60;99.90;;;;;;5033844;28;20243;-73
2021/06/30 05:43:10;;;;;;;1999.90;999.90;;;16.60;99.90;;;;;;5033804;28;20179;-73
2021/06/30 05:45:36;;;;;;;1999.90;999.90;;;16.60;99.90;;;;;;5033425;28;20192;-73
2021/06/30 05:48:02;;;;;;;1999.90;999.90;;;16.50;99.90;;;;;;5034018;28;20168;-73
2021/06/30 05:50:27;;;;;;;1999.90;999.90;;;16.50;99.90;;;;;;5032624;28;20182;-73
2021/06/30 05:52:53;;;;;;;1999.90;999.90;;;16.40;99.90;;;;;;5033578;28;20430;-73
2021/06/30 05:55:19;;;;;;;1999.90;999.90;;;16.50;99.90;;;;;;5033244;28;20194;-73
2021/06/30 05:57:44;;;;;;;1999.90;999.90;;;16.50;99.90;;;;;;5033589;28;20204;-73
2021/06/30 06:00:16;;;;;;;1999.90;999.90;;;16.50;99.90;;;;;;5033523;28;20234;-73
2021/06/30 06:02:42;;;;;;;1999.90;999.90;;;16.50;99.90;;;;;;5033625;28;20173;-73
2021/06/30 06:05:08;;;;;;;1999.90;999.90;;;16.40;99.90;;;;;;5033059;28;20480;-73
2021/06/30 06:07:34;;;;;;;1999.90;999.90;;;16.20;99.90;;;;;;5033462;28;20586;-73
2021/06/30 06:10:00;;;;;;;1999.90;999.90;;;16.30;99.90;;;;;;5033368;28;20412;-73
2021/06/30 06:12:27;;;;;;;1999.90;999.90;;;16.20;99.90;;;;;;5033304;28;20986;-73
2021/06/30 06:14:53;;;;;;;1999.90;999.90;;;16.20;99.90;;;;;;5032886;28;20605;-73
2021/06/30 06:17:20;;;;;;;1999.90;999.90;;;16.20;99.90;;;;;;5032952;28;20491;-73
2021/06/30 06:19:45;;;;;;;1999.90;999.90;;;16.30;99.90;;;;;;5033118;28;20823;-73
2021/06/30 06:22:11;;;;;;;1999.90;999.90;;;16.30;99.90;;;;;;5033127;28;20399;-73
2021/06/30 06:24:37;;;;;;;1999.90;999.90;;;16.20;99.90;;;;;;5032787;28;20257;-74
2021/06/30 06:27:04;;;;;;;1999.90;999.90;;;16.30;99.90;;;;;;5033044;28;20161;-75
2021/06/30 06:29:30;;;;;;;1999.90;999.90;;;16.30;99.90;;;;;;5033012;28;20835;-75
2021/06/30 06:31:56;;;;;;;1999.90;999.90;;;16.40;99.90;;;;;;5032938;28;20505;-77
2021/06/30 06:34:22;;;;;;;1999.90;999.90;;;16.40;99.90;;;;;;5031176;28;20194;-75
2021/06/30 06:36:51;;;;;;;1999.90;999.90;;;16.40;99.90;;;;;;5033044;28;20216;-74
2021/06/30 06:39:18;;;;;;;1999.90;999.90;;;16.50;99.90;;;;;;5032822;28;20400;-75
2021/06/30 06:41:44;;;;;;;1999.90;999.90;;;16.60;99.90;;;;;;5032763;28;20403;-76
2021/06/30 06:44:10;;;;;;;1999.90;999.90;;;16.50;99.90;;;;;;5032389;28;20430;-75
2021/06/30 06:46:40;;;;;;;1999.90;999.90;;;16.60;99.90;;;;;;5032740;28;20425;-75
2021/06/30 06:49:07;;;;;;;1999.90;999.90;;;16.60;99.90;;;;;;5032614;28;20177;-74
2021/06/30 06:51:33;;;;;;;1999.90;999.90;;;16.60;99.90;;;;;;5032630;28;20416;-74
2021/06/30 06:53:59;;;;;;;1999.90;999.90;;;16.70;99.90;;;;;;5032290;28;20430;-75
2021/06/30 06:56:27;;;;;;;1999.90;999.90;;;16.70;99.90;;;;;;5032448;28;20449;-75
2021/06/30 06:58:54;;;;;;;1999.90;999.90;;;16.60;99.90;;;;;;5032503;28;20165;-74
2021/06/30 07:01:20;;;;;;;1999.90;999.90;;;16.50;99.90;;;;;;5032176;28;20481;-74
2021/06/30 07:03:46;;;;;;;1999.90;999.90;;;16.50;99.90;;;;;;5032116;28;20418;-74
2021/06/30 07:06:11;;;;;;;1999.90;999.90;;;16.50;99.90;;;;;;5032293;28;20464;-74
2021/06/30 07:08:37;;;;;;;1999.90;999.90;;;16.50;99.90;;;;;;5032372;28;20174;-74
2021/06/30 07:11:03;;;;;;;1999.90;999.90;;;16.50;99.90;;;;;;5032316;28;20176;-75
2021/06/30 07:13:29;;;;;;;1999.90;999.90;;;16.40;99.90;;;;;;5032198;28;20517;-75
2021/06/30 07:15:54;;;;;;;1999.90;999.90;;;16.30;99.90;;;;;;5031913;28;20201;-74
2021/06/30 07:18:20;;;;;;;1999.90;999.90;;;16.40;99.90;;;;;;5031955;28;20173;-71
2021/06/30 07:20:45;;;;;;;1999.90;999.90;;;16.40;99.90;;;;;;5032125;28;20200;-71
2021/06/30 07:23:12;;;;;;;1999.90;999.90;;;16.50;99.90;;;;;;5032083;28;20255;-71
2021/06/30 07:25:38;;;;;;;1999.90;999.90;;;16.50;99.90;;;;;;5031685;28;20218;-71
2021/06/30 07:28:05;;;;;;;1999.90;999.90;;;16.60;99.90;;;;;;5032056;28;20775;-72
2021/06/30 07:30:30;;;;;;;1999.90;999.90;;;16.70;99.90;;;;;;5032060;28;20399;-72
2021/06/30 07:32:57;;;;;;;1999.90;999.90;;;16.90;99.90;;;;;;5031983;28;20397;-71
2021/06/30 07:35:23;;;;;;;1999.90;999.90;;;17.00;99.90;;;;;;5031635;28;20195;-71
2021/06/30 07:37:48;;;;;;;1999.90;999.90;;;17.00;99.90;;;;;;5031912;28;20457;-73
2021/06/30 07:40:15;;;;;;;1999.90;999.90;;;16.90;99.90;;;;;;5029601;28;20173;-73
2021/06/30 07:42:41;;;;;;;1999.90;999.90;;;16.90;99.90;;;;;;5031155;28;20170;-73
2021/06/30 07:45:07;;;;;;;1999.90;999.90;;;16.90;99.90;;;;;;5027141;28;20435;-73
2021/06/30 07:47:33;;;;;;;1999.90;999.90;;;16.90;99.90;;;;;;5029669;28;20448;-73
2021/06/30 07:50:00;;;;;;;1999.90;999.90;;;16.90;99.90;;;;;;5030289;28;21031;-73
2021/06/30 07:52:26;;;;;;;1999.90;999.90;;;16.80;99.90;;;;;;5029558;28;20782;-72
2021/06/30 07:54:51;;;;;;;1999.90;999.90;;;16.70;99.90;;;;;;5027708;28;20443;-75
2021/06/30 07:57:17;;;;;;;1999.90;999.90;;;16.60;99.90;;;;;;5028841;28;20204;-74
2021/06/30 07:59:43;;;;;;;1999.90;999.90;;;16.60;99.90;;;;;;5029115;28;20189;-74
2021/06/30 08:02:08;;;;;;;1999.90;999.90;;;16.70;99.90;;;;;;5029204;28;20194;-71
2021/06/30 08:04:34;;;;;;;1999.90;999.90;;;16.80;99.90;;;;;;5029284;28;20248;-73
2021/06/30 08:06:59;;;;;;;1999.90;999.90;;;17.00;99.90;;;;;;5029298;28;20547;-74
2021/06/30 08:09:27;;;;;;;1999.90;999.90;;;17.10;99.90;;;;;;5029456;28;20172;-75
2021/06/30 08:11:53;;;;;;;1999.90;999.90;;;17.10;99.90;;;;;;5029495;28;20183;-74
2021/06/30 08:14:18;;;;;;;1999.90;999.90;;;17.20;99.90;;;;;;5032596;28;20812;-74
2021/06/30 08:16:44;;;;;;;1999.90;999.90;;;17.10;99.90;;;;;;5033567;28;20202;-75
2021/06/30 08:19:10;;;;;;;1999.90;999.90;;;17.00;99.90;;;;;;5033658;28;20189;-75
2021/06/30 08:21:36;;;;;;;1999.90;999.90;;;16.80;99.90;;;;;;5033100;28;20623;-75
2021/06/30 08:24:01;;;;;;;1999.90;999.90;;;16.60;99.90;;;;;;5033208;28;20588;-74
2021/06/30 08:26:27;;;;;;;1999.90;999.90;;;16.40;99.90;;;;;;5033480;28;20410;-74
2021/06/30 08:28:53;;;;;;;1999.90;999.90;;;16.40;99.90;;;;;;5032650;28;20542;-74
2021/06/30 08:31:18;;;;;;;1999.90;999.90;;;16.40;99.90;;;;;;5033494;28;20207;-74
2021/06/30 08:33:44;;;;;;;1999.90;999.90;;;16.40;99.90;;;;;;5033170;28;20195;-74
2021/06/30 08:36:09;;;;;;;1999.90;999.90;;;16.60;99.90;;;;;;5032588;28;20680;-74
2021/06/30 08:38:35;;;;;;;1999.90;999.90;;;16.90;99.90;;;;;;5033199;28;20251;-74
2021/06/30 08:41:01;;;;;;;1999.90;999.90;;;17.00;99.90;;;;;;5033651;28;20193;-73
2021/06/30 08:43:27;;;;;;;1999.90;999.90;;;17.10;99.90;;;;;;5032577;28;20674;-74
2021/06/30 08:45:53;;;;;;;1999.90;999.90;;;17.10;99.90;;;;;;5033129;28;20468;-74
2021/06/30 08:48:19;;;;;;;1999.90;999.90;;;17.10;99.90;;;;;;5033030;28;21085;-74
2021/06/30 08:50:46;;;;;;;1999.90;999.90;;;17.10;99.90;;;;;;5032769;28;20179;-74
2021/06/30 08:53:13;;;;;;;1999.90;999.90;;;17.20;99.90;;;;;;5033160;28;20888;-74
2021/06/30 08:55:45;;;;;;;1999.90;999.90;;;17.40;99.90;;;;;;5031297;28;20449;-74
2021/06/30 08:58:13;;;;;;;1999.90;999.90;;;17.50;99.90;;;;;;5032383;28;20397;-74
2021/06/30 09:00:41;;;;;;;1999.90;999.90;;;17.70;99.90;;;;;;5033015;28;20414;-74
2021/06/30 09:03:13;;;;;;;1999.90;999.90;;;17.90;99.90;;;;;;5030615;28;20420;-74
2021/06/30 09:08:19;;;;;;;1999.90;999.90;;;18.10;99.90;;;;;;5032744;28;20501;-74
2021/06/30 09:10:44;;;;;;;1999.90;999.90;;;18.20;99.90;;;;;;5032612;28;20517;-75
2021/06/30 09:13:24;;;;;;;1999.90;999.90;;;18.30;99.90;;;;;;5032176;28;20181;-75
2021/06/30 09:16:00;;;;;;;1999.90;999.90;;;18.50;99.90;;;;;;5030462;28;20215;-75
2021/06/30 09:18:30;;;;;;;1999.90;999.90;;;18.70;99.90;;;;;;5032327;28;21015;-75
2021/06/30 09:21:21;;;;;;;1999.90;999.90;;;18.80;99.90;;;;;;5031899;28;20414;-75
2021/06/30 09:24:07;;;;;;;1999.90;999.90;;;18.70;99.90;;;;;;5030488;28;20441;-74
2021/06/30 09:26:45;;;;;;;1999.90;999.90;;;18.80;99.90;;;;;;5032086;28;20418;-74
2021/06/30 09:29:13;;;;;;;1999.90;999.90;;;18.90;99.90;;;;;;5031651;28;20398;-74
2021/06/30 09:31:48;;;;;;;1999.90;999.90;;;19.10;99.90;;;;;;5032458;28;20416;-74
2021/06/30 09:34:22;;;;;;;1999.90;999.90;;;19.30;99.90;;;;;;5025755;28;20439;-74
2021/06/30 09:36:58;;;;;;;1999.90;999.90;;;19.40;99.90;;;;;;5017383;28;20455;-74
2021/06/30 09:39:24;;;;;;;1999.90;999.90;;;19.40;99.90;;;;;;5027119;28;20421;-75
2021/06/30 09:42:00;;;;;;;1999.90;999.90;;;19.20;99.90;;;;;;5032107;28;20447;-74
2021/06/30 09:44:27;;;;;;;1999.90;999.90;;;19.10;99.90;;;;;;5029650;28;20813;-74
2021/06/30 09:46:55;;;;;;;1999.90;999.90;;;19.10;99.90;;;;;;5031664;28;20573;-75
2021/06/30 09:49:21;;;;;;;1999.90;999.90;;;19.00;99.90;;;;;;5031716;28;20427;-76
2021/06/30 09:52:09;;;;;;;1999.90;999.90;;;19.10;99.90;;;;;;5031553;28;20418;-75
2021/06/30 09:54:36;;;;;;;1999.90;999.90;;;19.00;99.90;;;;;;5027926;28;20450;-75
2021/06/30 09:57:08;;;;;;;1999.90;999.90;;;19.00;99.90;;;;;;5031270;28;20458;-75
2021/06/30 09:59:36;;;;;;;1999.90;999.90;;;18.90;99.90;;;;;;5031708;28;20803;-75
2021/06/30 10:02:09;;;;;;;1999.90;999.90;;;18.70;99.90;;;;;;5031735;28;20409;-74
2021/06/30 10:04:40;;;;;;;1999.90;999.90;;;18.60;99.90;;;;;;5027394;28;20480;-74
2021/06/30 10:07:17;;;;;;;1999.90;999.90;;;18.80;99.90;;;;;;5031378;28;20491;-74
2021/06/30 10:10:05;;;;;;;1999.90;999.90;;;18.90;99.90;;;;;;5028174;28;20477;-73
2021/06/30 10:12:33;;;;;;;1999.90;999.90;;;19.10;99.90;;;;;;5031151;28;20411;-74
2021/06/30 10:15:00;;;;;;;1999.90;999.90;;;18.70;99.90;;;;;;5029402;28;20928;-74
2021/06/30 10:17:26;;;;;;;1999.90;999.90;;;18.30;99.90;;;;;;5031075;28;20543;-74
2021/06/30 10:19:54;;;;;;;1999.90;999.90;;;18.10;99.90;;;;;;5030911;28;20560;-73
2021/06/30 10:22:25;;;;;;;1999.90;999.90;;;18.10;99.90;;;;;;5030996;28;20412;-73
2021/06/30 10:24:52;;;;;;;1999.90;999.90;;;18.10;99.90;;;;;;5021410;28;20472;-74
2021/06/30 10:27:18;;;;;;;1999.90;999.90;;;18.30;99.90;;;;;;5030838;28;20418;-74
2021/06/30 10:30:05;;;;;;;1999.90;999.90;;;18.50;99.90;;;;;;5030781;28;20484;-74
2021/06/30 10:32:31;;;;;;;1999.90;999.90;;;18.70;99.90;;;;;;5030782;28;20414;-74
2021/06/30 10:35:03;;;;;;;1999.90;999.90;;;18.60;99.90;;;;;;5028075;28;20465;-74
2021/06/30 10:37:30;;;;;;;1999.90;999.90;;;18.50;99.90;;;;;;5030520;28;20545;-74
2021/06/30 10:39:56;;;;;;;1999.90;999.90;;;18.30;99.90;;;;;;5030954;28;20779;-74
2021/06/30 10:42:37;;;;;;;1999.90;999.90;;;18.00;99.90;;;;;;5030061;28;20414;-75
2021/06/30 10:45:18;;;;;;;1999.90;999.90;;;17.80;99.90;;;;;;5028574;28;21023;-75
2021/06/30 10:48:00;;;;;;;1999.90;999.90;;;17.80;99.90;;;;;;5030415;28;20491;-73
2021/06/30 10:50:34;;;;;;;1999.90;999.90;;;17.80;99.90;;;;;;5027264;28;20551;-73
2021/06/30 10:53:02;;;;;;;1999.90;999.90;;;17.90;99.90;;;;;;5031139;28;20501;-74
2021/06/30 10:55:35;;;;;;;1999.90;999.90;;;18.10;99.90;;;;;;5028770;28;20484;-74
2021/06/30 10:58:10;;;;;;;1999.90;999.90;;;18.10;99.90;;;;;;5029497;28;20430;-73
2021/06/30 11:00:37;;;;;;;1999.90;999.90;;;18.00;99.90;;;;;;5030450;28;20433;-73
2021/06/30 11:03:29;;;;;;;1999.90;999.90;;;17.90;99.90;;;;;;5030427;28;20465;-73
2021/06/30 11:05:56;;;;;;;1999.90;999.90;;;17.80;99.90;;;;;;5008371;28;20426;-73
2021/06/30 11:08:57;;;;;;;1999.90;999.90;;;17.80;99.90;;;;;;5021818;28;20458;-73
2021/06/30 11:11:34;;;;;;;1999.90;999.90;;;17.90;99.90;;;;;;5026564;28;20406;-73
2021/06/30 11:14:06;;;;;;;1999.90;999.90;;;18.00;99.90;;;;;;5025788;28;20444;-73
2021/06/30 11:19:17;;;;;;;1999.90;999.90;;;18.40;99.90;;;;;;5030111;28;20439;-73
2021/06/30 11:21:52;;;;;;;1999.90;999.90;;;18.50;99.90;;;;;;5030606;28;20420;-73
2021/06/30 11:24:36;;;;;;;1999.90;999.90;;;18.70;99.90;;;;;;5028167;28;20461;-72
2021/06/30 11:27:15;;;;;;;1999.90;999.90;;;18.90;99.90;;;;;;5029691;28;20402;-73
2021/06/30 11:29:44;;;;;;;1999.90;999.90;;;19.10;99.90;;;;;;5030024;28;20494;-73
2021/06/30 11:35:05;;;;;;;1999.90;999.90;;;20.00;99.90;;;;;;5021237;28;20563;-73
2021/06/30 11:37:31;;;;;;;1999.90;999.90;;;20.50;99.90;;;;;;5029775;28;20468;-73
2021/06/30 11:39:59;;;;;;;1999.90;999.90;;;20.70;99.90;;;;;;5030171;28;20411;-74
2021/06/30 11:42:31;;;;;;;1999.90;999.90;;;20.70;99.90;;;;;;5029717;28;20455;-73
2021/06/30 11:44:57;;;;;;;1999.90;999.90;;;20.40;99.90;;;;;;5028143;28;20566;-73
2021/06/30 11:47:23;;;;;;;1999.90;999.90;;;19.90;99.90;;;;;;5030591;28;20498;-73
2021/06/30 11:49:49;;;;;;;1999.90;999.90;;;19.40;99.90;;;;;;5033429;28;20174;-73
2021/06/30 11:52:14;;;;;;;1999.90;999.90;;;18.80;99.90;;;;;;5034210;28;20963;-72
2021/06/30 11:54:41;;;;;;;1999.90;999.90;;;18.40;99.90;;;;;;5032130;28;20235;-72
2021/06/30 11:57:07;;;;;;;1999.90;999.90;;;18.00;99.90;;;;;;5033290;28;20184;-72
2021/06/30 11:59:36;;;;;;;1999.90;999.90;;;17.80;99.90;;;;;;5033866;28;20759;-72
2021/06/30 12:02:02;;;;;;;1999.90;999.90;;;17.60;99.90;;;;;;5034187;28;20969;-73
2021/06/30 12:04:28;;;;;;;1999.90;999.90;;;17.50;99.90;;;;;;5031311;28;20453;-73
2021/06/30 12:07:05;;;;;;;1999.90;999.90;;;17.50;99.90;;;;;;5033439;28;20475;-73
2021/06/30 12:09:33;;;;;;;1999.90;999.90;;;17.50;99.90;;;;;;5033548;28;20409;-73